sensor_id;sensor_type;location;lat;lon;timestamp;pressure;altitude;pressure_sealevel;temperature;humidity
62710;BME280;48770;51.624;5.886;2023-02-19T00:01:12;101612.38;;;19.75;42.64
62710;BME280;48770;51.624;5.886;2023-02-19T00:03:39;101613.53;;;19.74;42.66
62710;BME280;48770;51.624;5.886;2023-02-19T00:06:07;101607.97;;;19.74;42.50
62710;BME280;48770;51.624;5.886;2023-02-19T00:08:34;101607.16;;;19.73;42.66
62710;BME280;48770;51.624;5.886;2023-02-19T00:11:01;101603.56;;;19.73;42.77
62710;BME280;48770;51.624;5.886;2023-02-19T00:13:27;101607.50;;;19.71;42.72
62710;BME280;48770;51.624;5.886;2023-02-19T00:15:53;101603.91;;;19.71;42.51
62710;BME280;48770;51.624;5.886;2023-02-19T00:18:18;101605.88;;;19.70;42.55
62710;BME280;48770;51.624;5.886;2023-02-19T00:20:43;101603.09;;;19.70;42.88
62710;BME280;48770;51.624;5.886;2023-02-19T00:23:09;101597.88;;;19.69;42.47
62710;BME280;48770;51.624;5.886;2023-02-19T00:25:37;101593.13;;;19.69;42.67
62710;BME280;48770;51.624;5.886;2023-02-19T00:28:03;101603.41;;;19.69;42.47
62710;BME280;48770;51.624;5.886;2023-02-19T00:30:29;101602.59;;;19.68;42.70
62710;BME280;48770;51.624;5.886;2023-02-19T00:32:54;101610.91;;;19.68;42.66
62710;BME280;48770;51.624;5.886;2023-02-19T00:35:20;101612.88;;;19.68;42.68
62710;BME280;48770;51.624;5.886;2023-02-19T00:37:45;101612.88;;;19.68;42.62
62710;BME280;48770;51.624;5.886;2023-02-19T00:40:11;101614.34;;;19.65;42.54
62710;BME280;48770;51.624;5.886;2023-02-19T00:42:36;101600.47;;;19.65;42.68
62710;BME280;48770;51.624;5.886;2023-02-19T00:45:01;101600.47;;;19.65;42.75
62710;BME280;48770;51.624;5.886;2023-02-19T00:47:27;101613.53;;;19.65;42.61
62710;BME280;48770;51.624;5.886;2023-02-19T00:49:52;101611.91;;;19.64;42.57
62710;BME280;48770;51.624;5.886;2023-02-19T00:52:17;101606.34;;;19.64;42.56
62710;BME280;48770;51.624;5.886;2023-02-19T00:54:44;101610.28;;;19.63;42.56
62710;BME280;48770;51.624;5.886;2023-02-19T00:57:09;101605.88;;;19.62;42.69
62710;BME280;48770;51.624;5.886;2023-02-19T00:59:35;101615.81;;;19.63;42.70
62710;BME280;48770;51.624;5.886;2023-02-19T01:02:01;101620.56;;;19.62;42.64
62710;BME280;48770;51.624;5.886;2023-02-19T01:04:26;101613.03;;;19.63;42.35
62710;BME280;48770;51.624;5.886;2023-02-19T01:06:52;101614.19;;;19.62;42.54
62710;BME280;48770;51.624;5.886;2023-02-19T01:09:17;101617.28;;;19.60;42.63
62710;BME280;48770;51.624;5.886;2023-02-19T01:11:42;101621.69;;;19.61;42.47
62710;BME280;48770;51.624;5.886;2023-02-19T01:14:08;101610.94;;;19.60;42.66
62710;BME280;48770;51.624;5.886;2023-02-19T01:16:33;101618.09;;;19.61;42.45
62710;BME280;48770;51.624;5.886;2023-02-19T01:18:59;101619.25;;;19.60;42.48
62710;BME280;48770;51.624;5.886;2023-02-19T01:21:26;101624.78;;;19.60;42.45
62710;BME280;48770;51.624;5.886;2023-02-19T01:23:52;101623.97;;;19.59;42.60
62710;BME280;48770;51.624;5.886;2023-02-19T01:26:20;101622.03;;;19.60;42.61
62710;BME280;48770;51.624;5.886;2023-02-19T01:28:46;101622.34;;;19.58;42.42
62710;BME280;48770;51.624;5.886;2023-02-19T01:31:15;101628.72;;;19.59;42.72
62710;BME280;48770;51.624;5.886;2023-02-19T01:33:47;101628.72;;;19.59;42.67
62710;BME280;48770;51.624;5.886;2023-02-19T01:36:14;101621.84;;;19.56;42.56
62710;BME280;48770;51.624;5.886;2023-02-19T01:38:40;101636.53;;;19.57;42.69
62710;BME280;48770;51.624;5.886;2023-02-19T01:41:06;101629.03;;;19.57;42.55
62710;BME280;48770;51.624;5.886;2023-02-19T01:43:33;101626.25;;;19.57;42.70
62710;BME280;48770;51.624;5.886;2023-02-19T01:46:00;101636.53;;;19.57;42.52
62710;BME280;48770;51.624;5.886;2023-02-19T01:48:29;101640.13;;;19.57;42.65
62710;BME280;48770;51.624;5.886;2023-02-19T01:51:03;101635.72;;;19.56;42.55
62710;BME280;48770;51.624;5.886;2023-02-19T01:53:33;101639.66;;;19.55;42.54
62710;BME280;48770;51.624;5.886;2023-02-19T01:56:01;101637.69;;;19.56;42.55
62710;BME280;48770;51.624;5.886;2023-02-19T01:58:30;101640.78;;;19.54;42.48
62710;BME280;48770;51.624;5.886;2023-02-19T02:00:56;101647.16;;;19.55;42.75
62710;BME280;48770;51.624;5.886;2023-02-19T02:03:21;101634.44;;;19.54;42.44
62710;BME280;48770;51.624;5.886;2023-02-19T02:08:32;101642.22;;;19.52;42.52
62710;BME280;48770;51.624;5.886;2023-02-19T02:11:16;101629.47;;;19.51;42.58
62710;BME280;48770;51.624;5.886;2023-02-19T02:13:42;101636.69;;;19.52;42.59
62710;BME280;48770;51.624;5.886;2023-02-19T02:16:22;101636.97;;;19.50;42.50
62710;BME280;48770;51.624;5.886;2023-02-19T02:21:45;101635.66;;;19.48;42.44
62710;BME280;48770;51.624;5.886;2023-02-19T02:30:40;101631.91;;;19.44;42.61
62710;BME280;48770;51.624;5.886;2023-02-19T02:35:59;101637.13;;;19.45;42.55
62710;BME280;48770;51.624;5.886;2023-02-19T02:38:29;101645.78;;;19.44;42.86
62710;BME280;48770;51.624;5.886;2023-02-19T02:40:56;101637.13;;;19.45;42.58
62710;BME280;48770;51.624;5.886;2023-02-19T02:43:22;101640.72;;;19.46;42.68
62710;BME280;48770;51.624;5.886;2023-02-19T02:45:48;101637.13;;;19.45;42.60
62710;BME280;48770;51.624;5.886;2023-02-19T02:51:11;101635.81;;;19.42;42.42
62710;BME280;48770;51.624;5.886;2023-02-19T02:56:56;101649.19;;;19.40;42.68
62710;BME280;48770;51.624;5.886;2023-02-19T02:59:25;101646.91;;;19.42;42.67
62710;BME280;48770;51.624;5.886;2023-02-19T03:01:55;101658.81;;;19.43;42.61
62710;BME280;48770;51.624;5.886;2023-02-19T03:08:53;101660.63;;;19.39;42.37
62710;BME280;48770;51.624;5.886;2023-02-19T03:10:51;101658.97;;;19.38;42.57
62710;BME280;48770;51.624;5.886;2023-02-19T03:13:24;101656.69;;;19.40;42.43
62710;BME280;48770;51.624;5.886;2023-02-19T03:16:20;101654.25;;;19.38;42.49
62710;BME280;48770;51.624;5.886;2023-02-19T03:19:07;101661.75;;;19.38;42.64
62710;BME280;48770;51.624;5.886;2023-02-19T03:21:48;101658.97;;;19.38;42.76
62710;BME280;48770;51.624;5.886;2023-02-19T03:24:16;101668.13;;;19.38;42.45
62710;BME280;48770;51.624;5.886;2023-02-19T03:27:02;101668.13;;;19.38;42.56
62710;BME280;48770;51.624;5.886;2023-02-19T03:29:29;101676.44;;;19.38;42.50
62710;BME280;48770;51.624;5.886;2023-02-19T03:31:57;101665.03;;;19.40;42.68
62710;BME280;48770;51.624;5.886;2023-02-19T03:34:27;101680.53;;;19.41;42.50
62710;BME280;48770;51.624;5.886;2023-02-19T03:37:01;101678.88;;;19.40;42.46
62710;BME280;48770;51.624;5.886;2023-02-19T03:39:28;101678.06;;;19.39;42.56
62710;BME280;48770;51.624;5.886;2023-02-19T03:44:43;101678.06;;;19.39;42.43
62710;BME280;48770;51.624;5.886;2023-02-19T03:50:23;101687.53;;;19.38;42.59
62710;BME280;48770;51.624;5.886;2023-02-19T03:53:04;101687.84;;;19.37;42.57
62710;BME280;48770;51.624;5.886;2023-02-19T03:58:43;101700.09;;;19.36;42.55
62710;BME280;48770;51.624;5.886;2023-02-19T04:01:10;101708.72;;;19.34;42.63
62710;BME280;48770;51.624;5.886;2023-02-19T04:06:26;101713.78;;;19.32;42.38
62710;BME280;48770;51.624;5.886;2023-02-19T04:08:55;101709.53;;;19.35;42.47
62710;BME280;48770;51.624;5.886;2023-02-19T04:11:23;101719.50;;;19.36;42.45
62710;BME280;48770;51.624;5.886;2023-02-19T04:14:01;101721.47;;;19.35;42.36
62710;BME280;48770;51.624;5.886;2023-02-19T04:16:31;101727.00;;;19.35;42.40
62710;BME280;48770;51.624;5.886;2023-02-19T04:19:02;101735.31;;;19.35;42.43
62710;BME280;48770;51.624;5.886;2023-02-19T04:21:31;101735.31;;;19.35;42.51
62710;BME280;48770;51.624;5.886;2023-02-19T04:24:01;101739.72;;;19.36;42.29
62710;BME280;48770;51.624;5.886;2023-02-19T04:26:27;101745.28;;;19.36;42.19
62710;BME280;48770;51.624;5.886;2023-02-19T04:28:53;101743.31;;;19.37;42.47
62710;BME280;48770;51.624;5.886;2023-02-19T04:31:18;101749.19;;;19.35;42.54
62710;BME280;48770;51.624;5.886;2023-02-19T04:33:44;101740.06;;;19.35;42.34
62710;BME280;48770;51.624;5.886;2023-02-19T04:36:10;101749.19;;;19.35;42.24
62710;BME280;48770;51.624;5.886;2023-02-19T04:38:35;101745.59;;;19.35;42.48
62710;BME280;48770;51.624;5.886;2023-02-19T04:41:01;101755.06;;;19.34;42.49
62710;BME280;48770;51.624;5.886;2023-02-19T04:43:26;101755.88;;;19.34;42.35
62710;BME280;48770;51.624;5.886;2023-02-19T04:45:51;101764.19;;;19.34;42.35
62710;BME280;48770;51.624;5.886;2023-02-19T04:48:17;101758.16;;;19.32;42.34
62710;BME280;48770;51.624;5.886;2023-02-19T04:50:42;101763.69;;;19.32;42.32
62710;BME280;48770;51.624;5.886;2023-02-19T04:53:07;101775.59;;;19.33;42.22
62710;BME280;48770;51.624;5.886;2023-02-19T04:55:37;101778.38;;;19.33;42.29
62710;BME280;48770;51.624;5.886;2023-02-19T04:58:02;101786.69;;;19.33;42.33
62710;BME280;48770;51.624;5.886;2023-02-19T05:00:28;101783.09;;;19.32;42.32
62710;BME280;48770;51.624;5.886;2023-02-19T05:02:53;101793.38;;;19.32;42.45
62710;BME280;48770;51.624;5.886;2023-02-19T05:05:18;101803.34;;;19.33;42.18
62710;BME280;48770;51.624;5.886;2023-02-19T05:07:44;101802.84;;;19.31;42.33
62710;BME280;48770;51.624;5.886;2023-02-19T05:10:09;101809.19;;;19.31;42.26
62710;BME280;48770;51.624;5.886;2023-02-19T05:12:35;101809.19;;;19.31;42.33
62710;BME280;48770;51.624;5.886;2023-02-19T05:15:00;101804.78;;;19.30;42.34
62710;BME280;48770;51.624;5.886;2023-02-19T05:17:25;101814.75;;;19.31;42.36
62710;BME280;48770;51.624;5.886;2023-02-19T05:19:51;101821.44;;;19.30;42.23
62710;BME280;48770;51.624;5.886;2023-02-19T05:22:16;101823.38;;;19.30;42.41
62710;BME280;48770;51.624;5.886;2023-02-19T05:24:42;101820.63;;;19.30;42.34
62710;BME280;48770;51.624;5.886;2023-02-19T05:27:07;101817.84;;;19.30;42.31
62710;BME280;48770;51.624;5.886;2023-02-19T05:29:32;101819.78;;;19.29;42.22
62710;BME280;48770;51.624;5.886;2023-02-19T05:31:58;101823.72;;;19.28;42.28
62710;BME280;48770;51.624;5.886;2023-02-19T05:34:23;101818.16;;;19.28;42.47
62710;BME280;48770;51.624;5.886;2023-02-19T05:36:48;101822.56;;;19.29;42.50
62710;BME280;48770;51.624;5.886;2023-02-19T05:39:14;101826.47;;;19.28;42.23
62710;BME280;48770;51.624;5.886;2023-02-19T05:41:39;101832.03;;;19.28;42.29
62710;BME280;48770;51.624;5.886;2023-02-19T05:44:04;101831.22;;;19.28;42.31
62710;BME280;48770;51.624;5.886;2023-02-19T05:46:30;101827.63;;;19.27;42.36
62710;BME280;48770;51.624;5.886;2023-02-19T05:48:56;101835.63;;;19.29;42.27
62710;BME280;48770;51.624;5.886;2023-02-19T05:51:23;101829.25;;;19.28;42.54
62710;BME280;48770;51.624;5.886;2023-02-19T05:53:50;101831.22;;;19.28;42.30
62710;BME280;48770;51.624;5.886;2023-02-19T05:56:34;101828.75;;;19.26;42.26
62710;BME280;48770;51.624;5.886;2023-02-19T05:59:05;101837.06;;;19.26;42.32
62710;BME280;48770;51.624;5.886;2023-02-19T06:01:33;101834.59;;;19.25;42.15
62710;BME280;48770;51.624;5.886;2023-02-19T06:03:58;101840.94;;;19.25;42.33
62710;BME280;48770;51.624;5.886;2023-02-19T06:06:25;101834.31;;;19.26;42.35
62710;BME280;48770;51.624;5.886;2023-02-19T06:08:51;101842.91;;;19.25;42.27
62710;BME280;48770;51.624;5.886;2023-02-19T06:11:17;101841.81;;;19.26;42.12
62710;BME280;48770;51.624;5.886;2023-02-19T06:13:43;101839.84;;;19.26;42.32
62710;BME280;48770;51.624;5.886;2023-02-19T06:16:08;101851.22;;;19.25;42.30
62710;BME280;48770;51.624;5.886;2023-02-19T06:18:34;101847.63;;;19.24;42.34
62710;BME280;48770;51.624;5.886;2023-02-19T06:21:04;101854.00;;;19.25;42.22
62710;BME280;48770;51.624;5.886;2023-02-19T06:23:30;101849.59;;;19.24;42.20
62710;BME280;48770;51.624;5.886;2023-02-19T06:26:15;101863.78;;;19.22;42.25
62710;BME280;48770;51.624;5.886;2023-02-19T06:28:45;101859.03;;;19.23;42.38
62710;BME280;48770;51.624;5.886;2023-02-19T06:31:11;101867.34;;;19.23;42.32
62710;BME280;48770;51.624;5.886;2023-02-19T06:33:37;101865.41;;;19.23;42.16
62710;BME280;48770;51.624;5.886;2023-02-19T06:36:09;101870.94;;;19.23;42.23
62710;BME280;48770;51.624;5.886;2023-02-19T06:38:35;101873.22;;;19.21;42.47
62710;BME280;48770;51.624;5.886;2023-02-19T06:41:02;101877.63;;;19.22;42.19
62710;BME280;48770;51.624;5.886;2023-02-19T06:43:27;101890.69;;;19.22;42.28
62710;BME280;48770;51.624;5.886;2023-02-19T06:45:53;101900.13;;;19.21;42.32
62710;BME280;48770;51.624;5.886;2023-02-19T06:48:19;101900.94;;;19.21;42.22
62710;BME280;48770;51.624;5.886;2023-02-19T06:50:44;101900.63;;;19.23;42.16
62710;BME280;48770;51.624;5.886;2023-02-19T06:53:09;101907.31;;;19.22;42.08
62710;BME280;48770;51.624;5.886;2023-02-19T06:55:36;101903.72;;;19.21;42.26
62710;BME280;48770;51.624;5.886;2023-02-19T06:58:02;101907.63;;;19.20;42.15
62710;BME280;48770;51.624;5.886;2023-02-19T07:00:27;101910.41;;;19.20;42.25
62710;BME280;48770;51.624;5.886;2023-02-19T07:02:53;101904.03;;;19.20;42.28
62710;BME280;48770;51.624;5.886;2023-02-19T07:05:21;101905.38;;;19.22;42.37
62710;BME280;48770;51.624;5.886;2023-02-19T07:07:47;101907.63;;;19.20;42.39
62710;BME280;48770;51.624;5.886;2023-02-19T07:10:12;101926.22;;;19.20;42.18
62710;BME280;48770;51.624;5.886;2023-02-19T07:12:38;101926.53;;;19.18;42.15
62710;BME280;48770;51.624;5.886;2023-02-19T07:15:03;101927.34;;;19.19;42.20
62710;BME280;48770;51.624;5.886;2023-02-19T07:17:29;101934.03;;;19.18;42.33
62710;BME280;48770;51.624;5.886;2023-02-19T07:19:54;101941.22;;;19.19;42.21
62710;BME280;48770;51.624;5.886;2023-02-19T07:22:19;101943.16;;;19.18;42.15
62710;BME280;48770;51.624;5.886;2023-02-19T07:24:45;101945.13;;;19.18;42.09
62710;BME280;48770;51.624;5.886;2023-02-19T07:27:10;101951.50;;;19.18;42.07
62710;BME280;48770;51.624;5.886;2023-02-19T07:29:35;101959.81;;;19.18;42.17
62710;BME280;48770;51.624;5.886;2023-02-19T07:32:01;101958.16;;;19.17;42.24
62710;BME280;48770;51.624;5.886;2023-02-19T07:34:26;101963.72;;;19.17;42.22
62710;BME280;48770;51.624;5.886;2023-02-19T07:36:51;101968.44;;;19.17;41.94
62710;BME280;48770;51.624;5.886;2023-02-19T07:39:17;101977.56;;;19.17;42.07
62710;BME280;48770;51.624;5.886;2023-02-19T07:41:42;101979.53;;;19.17;42.01
62710;BME280;48770;51.624;5.886;2023-02-19T07:44:07;101986.72;;;19.18;42.55
62710;BME280;48770;51.624;5.886;2023-02-19T07:46:33;101990.63;;;19.17;42.21
62710;BME280;48770;51.624;5.886;2023-02-19T07:48:58;101994.22;;;19.17;42.20
62710;BME280;48770;51.624;5.886;2023-02-19T07:51:24;101999.75;;;19.17;42.40
62710;BME280;48770;51.624;5.886;2023-02-19T07:53:50;102002.53;;;19.17;42.25
62710;BME280;48770;51.624;5.886;2023-02-19T07:56:15;102011.66;;;19.18;42.15
62710;BME280;48770;51.624;5.886;2023-02-19T07:58:41;102010.84;;;19.17;42.23
62710;BME280;48770;51.624;5.886;2023-02-19T08:01:08;102008.91;;;19.18;42.08
62710;BME280;48770;51.624;5.886;2023-02-19T08:03:35;102008.06;;;19.17;42.04
62710;BME280;48770;51.624;5.886;2023-02-19T08:06:00;102019.16;;;19.17;42.17
62710;BME280;48770;51.624;5.886;2023-02-19T08:08:25;102022.25;;;19.16;42.20
62710;BME280;48770;51.624;5.886;2023-02-19T08:10:51;102029.44;;;19.17;42.33
62710;BME280;48770;51.624;5.886;2023-02-19T08:13:34;102033.97;;;19.13;42.30
62710;BME280;48770;51.624;5.886;2023-02-19T08:18:26;102041.97;;;19.14;42.29
62710;BME280;48770;51.624;5.886;2023-02-19T08:20:53;102042.78;;;19.15;42.30
62710;BME280;48770;51.624;5.886;2023-02-19T08:23:19;102050.28;;;19.14;42.11
62710;BME280;48770;51.624;5.886;2023-02-19T08:25:45;102050.28;;;19.14;42.24
62710;BME280;48770;51.624;5.886;2023-02-19T08:28:11;102051.09;;;19.15;42.21
62710;BME280;48770;51.624;5.886;2023-02-19T08:30:38;102050.28;;;19.14;42.16
62710;BME280;48770;51.624;5.886;2023-02-19T08:33:05;102054.69;;;19.15;42.02
62710;BME280;48770;51.624;5.886;2023-02-19T08:35:31;102057.78;;;19.14;42.13
62710;BME280;48770;51.624;5.886;2023-02-19T08:37:59;102058.28;;;19.16;42.01
62710;BME280;48770;51.624;5.886;2023-02-19T08:40:25;102059.44;;;19.15;42.13
62710;BME280;48770;51.624;5.886;2023-02-19T08:42:51;102051.94;;;19.15;42.27
62710;BME280;48770;51.624;5.886;2023-02-19T08:45:16;102053.88;;;19.15;42.22
62710;BME280;48770;51.624;5.886;2023-02-19T08:47:43;102049.16;;;19.15;42.01
62710;BME280;48770;51.624;5.886;2023-02-19T08:50:09;102056.34;;;19.16;42.08
62710;BME280;48770;51.624;5.886;2023-02-19T08:52:34;102063.84;;;19.16;42.13
62710;BME280;48770;51.624;5.886;2023-02-19T08:55:01;102076.88;;;19.15;42.16
62710;BME280;48770;51.624;5.886;2023-02-19T08:57:26;102069.69;;;19.14;42.09
62710;BME280;48770;51.624;5.886;2023-02-19T08:59:54;102080.47;;;19.16;42.02
62710;BME280;48770;51.624;5.886;2023-02-19T09:02:21;102085.19;;;19.15;42.31
62710;BME280;48770;51.624;5.886;2023-02-19T09:04:47;102087.97;;;19.15;42.19
62710;BME280;48770;51.624;5.886;2023-02-19T09:07:13;102086.34;;;19.14;42.12
62710;BME280;48770;51.624;5.886;2023-02-19T09:09:39;102088.78;;;19.16;42.03
62710;BME280;48770;51.624;5.886;2023-02-19T09:12:05;102075.25;;;19.14;42.18
62710;BME280;48770;51.624;5.886;2023-02-19T09:14:31;102091.88;;;19.14;42.13
62710;BME280;48770;51.624;5.886;2023-02-19T09:16:58;102095.78;;;19.13;42.05
62710;BME280;48770;51.624;5.886;2023-02-19T09:19:24;102102.97;;;19.14;42.11
62710;BME280;48770;51.624;5.886;2023-02-19T09:21:50;102103.78;;;19.15;42.17
62710;BME280;48770;51.624;5.886;2023-02-19T09:24:15;102107.69;;;19.14;42.02
62710;BME280;48770;51.624;5.886;2023-02-19T09:26:41;102108.50;;;19.14;42.33
62710;BME280;48770;51.624;5.886;2023-02-19T09:29:07;102095.78;;;19.13;42.13
62710;BME280;48770;51.624;5.886;2023-02-19T09:31:32;102093.50;;;19.15;42.19
62710;BME280;48770;51.624;5.886;2023-02-19T09:33:59;102105.44;;;19.16;42.22
62710;BME280;48770;51.624;5.886;2023-02-19T09:36:24;102101.00;;;19.15;42.04
62710;BME280;48770;51.624;5.886;2023-02-19T09:38:50;102094.34;;;19.16;42.09
62710;BME280;48770;51.624;5.886;2023-02-19T09:41:28;102102.66;;;19.16;41.95
62710;BME280;48770;51.624;5.886;2023-02-19T09:43:57;102105.94;;;19.18;42.01
62710;BME280;48770;51.624;5.886;2023-02-19T09:46:30;102109.53;;;19.18;41.96
62710;BME280;48770;51.624;5.886;2023-02-19T09:49:02;102115.91;;;19.19;42.21
62710;BME280;48770;51.624;5.886;2023-02-19T09:51:30;102116.72;;;19.19;42.19
62710;BME280;48770;51.624;5.886;2023-02-19T09:53:56;102126.66;;;19.20;42.34
62710;BME280;48770;51.624;5.886;2023-02-19T09:56:24;102151.81;;;19.24;42.16
62710;BME280;48770;51.624;5.886;2023-02-19T09:58:52;102158.19;;;19.24;42.12
62710;BME280;48770;51.624;5.886;2023-02-19T10:01:18;102160.69;;;19.26;42.17
62710;BME280;48770;51.624;5.886;2023-02-19T10:03:46;102164.28;;;19.26;42.26
62710;BME280;48770;51.624;5.886;2023-02-19T10:08:40;102174.75;;;19.29;42.06
62710;BME280;48770;51.624;5.886;2023-02-19T10:11:10;102178.84;;;19.32;42.03
62710;BME280;48770;51.624;5.886;2023-02-19T10:13:54;102188.00;;;19.32;42.35
62710;BME280;48770;51.624;5.886;2023-02-19T10:16:25;102183.47;;;19.36;42.03
62710;BME280;48770;51.624;5.886;2023-02-19T10:18:51;102197.03;;;19.38;41.99
62710;BME280;48770;51.624;5.886;2023-02-19T10:21:19;102202.75;;;19.41;42.08
62710;BME280;48770;51.624;5.886;2023-02-19T10:23:49;102201.31;;;19.44;42.08
62710;BME280;48770;51.624;5.886;2023-02-19T10:26:18;102200.19;;;19.45;42.05
62710;BME280;48770;51.624;5.886;2023-02-19T10:28:43;102210.66;;;19.48;41.79
62710;BME280;48770;51.624;5.886;2023-02-19T10:31:17;102227.00;;;19.50;41.80
62710;BME280;48770;51.624;5.886;2023-02-19T10:33:52;102239.72;;;19.51;41.92
62710;BME280;48770;51.624;5.886;2023-02-19T10:38:53;102234.13;;;19.56;41.79
62710;BME280;48770;51.624;5.886;2023-02-19T10:41:20;102238.25;;;19.58;41.78
62710;BME280;48770;51.624;5.886;2023-02-19T10:46:30;102234.03;;;19.61;41.44
62710;BME280;48770;51.624;5.886;2023-02-19T10:49:04;102230.63;;;19.64;41.69
62710;BME280;48770;51.624;5.886;2023-02-19T10:54:19;102240.50;;;19.56;41.89
62710;BME280;48770;51.624;5.886;2023-02-19T10:56:48;102242.84;;;19.63;41.69
62710;BME280;48770;51.624;5.886;2023-02-19T10:59:26;102262.16;;;19.68;41.73
62710;BME280;48770;51.624;5.886;2023-02-19T11:01:56;102262.03;;;19.73;41.63
62710;BME280;48770;51.624;5.886;2023-02-19T11:04:22;102258.66;;;19.76;41.50
62710;BME280;48770;51.624;5.886;2023-02-19T11:06:48;102245.31;;;19.78;41.56
62710;BME280;48770;51.624;5.886;2023-02-19T11:09:37;102250.00;;;19.78;41.57
62710;BME280;48770;51.624;5.886;2023-02-19T11:12:03;102245.81;;;19.80;41.47
62710;BME280;48770;51.624;5.886;2023-02-19T11:14:31;102251.56;;;19.84;41.38
62710;BME280;48770;51.624;5.886;2023-02-19T11:16:59;102239.00;;;19.86;41.53
62710;BME280;48770;51.624;5.886;2023-02-19T11:19:37;102235.09;;;19.87;41.51
62710;BME280;48770;51.624;5.886;2023-02-19T11:22:31;102229.56;;;19.87;41.51
62710;BME280;48770;51.624;5.886;2023-02-19T11:25:05;102226.78;;;19.87;41.40
62710;BME280;48770;51.624;5.886;2023-02-19T11:27:32;102230.06;;;19.89;41.31
62710;BME280;48770;51.624;5.886;2023-02-19T11:30:31;102222.88;;;19.88;41.41
62710;BME280;48770;51.624;5.886;2023-02-19T11:35:41;102226.97;;;19.91;41.48
62710;BME280;48770;51.624;5.886;2023-02-19T11:38:12;102218.31;;;19.92;41.42
62710;BME280;48770;51.624;5.886;2023-02-19T11:49:20;102223.88;;;19.92;41.38
62710;BME280;48770;51.624;5.886;2023-02-19T11:54:51;102231.91;;;19.94;41.38
62710;BME280;48770;51.624;5.886;2023-02-19T12:08:17;102231.63;;;19.82;41.71
62710;BME280;48770;51.624;5.886;2023-02-19T12:13:22;102236.25;;;19.86;41.79
62710;BME280;48770;51.624;5.886;2023-02-19T12:16:20;102240.16;;;19.85;41.45
62710;BME280;48770;51.624;5.886;2023-02-19T12:19:29;102242.41;;;19.83;41.78
62710;BME280;48770;51.624;5.886;2023-02-19T12:22:20;102248.28;;;19.82;41.54
62710;BME280;48770;51.624;5.886;2023-02-19T12:25:12;102249.09;;;19.82;41.80
62710;BME280;48770;51.624;5.886;2023-02-19T12:28:04;102239.94;;;19.82;41.71
62710;BME280;48770;51.624;5.886;2023-02-19T12:44:44;102225.25;;;19.81;41.76
62710;BME280;48770;51.624;5.886;2023-02-19T12:47:22;102236.34;;;19.81;41.79
62710;BME280;48770;51.624;5.886;2023-02-19T12:50:17;102233.06;;;19.79;41.61
62710;BME280;48770;51.624;5.886;2023-02-19T12:52:49;102233.28;;;19.83;41.59
62710;BME280;48770;51.624;5.886;2023-02-19T12:55:35;102225.75;;;19.83;41.61
62710;BME280;48770;51.624;5.886;2023-02-19T12:58:05;102243.75;;;19.86;41.67
62710;BME280;48770;51.624;5.886;2023-02-19T13:00:37;102254.03;;;19.85;41.50
62710;BME280;48770;51.624;5.886;2023-02-19T13:03:17;102261.53;;;19.85;41.67
62710;BME280;48770;51.624;5.886;2023-02-19T13:11:08;102266.88;;;19.81;41.45
62710;BME280;48770;51.624;5.886;2023-02-19T13:13:42;102264.13;;;19.81;41.56
62710;BME280;48770;51.624;5.886;2023-02-19T13:16:17;102268.53;;;19.82;41.60
62710;BME280;48770;51.624;5.886;2023-02-19T13:18:57;102264.94;;;19.82;41.42
62710;BME280;48770;51.624;5.886;2023-02-19T13:21:29;102274.09;;;19.82;41.54
62710;BME280;48770;51.624;5.886;2023-02-19T13:24:32;102276.34;;;19.80;41.81
62710;BME280;48770;51.624;5.886;2023-02-19T13:27:21;102268.34;;;19.79;41.56
62710;BME280;48770;51.624;5.886;2023-02-19T13:35:48;102290.94;;;19.72;41.73
62710;BME280;48770;51.624;5.886;2023-02-19T13:38:19;102290.09;;;19.71;41.68
62710;BME280;48770;51.624;5.886;2023-02-19T13:40:58;102293.41;;;19.74;41.54
62710;BME280;48770;51.624;5.886;2023-02-19T13:43:27;102298.94;;;19.74;41.65
62710;BME280;48770;51.624;5.886;2023-02-19T13:45:59;102310.88;;;19.74;41.71
62710;BME280;48770;51.624;5.886;2023-02-19T13:48:29;102310.34;;;19.72;41.68
62710;BME280;48770;51.624;5.886;2023-02-19T13:58:56;102321.16;;;19.74;41.71
62710;BME280;48770;51.624;5.886;2023-02-19T14:04:23;102320.31;;;19.73;41.59
62710;BME280;48770;51.624;5.886;2023-02-19T14:07:33;102312.94;;;19.68;41.61
62710;BME280;48770;51.624;5.886;2023-02-19T14:09:58;102319.00;;;19.70;41.58
62710;BME280;48770;51.624;5.886;2023-02-19T14:12:34;102323.09;;;19.73;41.71
62710;BME280;48770;51.624;5.886;2023-02-19T14:21:22;102335.44;;;19.67;41.71
62710;BME280;48770;51.624;5.886;2023-02-19T14:23:52;102335.97;;;19.69;41.69
62710;BME280;48770;51.624;5.886;2023-02-19T14:26:20;102345.63;;;19.71;41.80
62710;BME280;48770;51.624;5.886;2023-02-19T14:28:47;102344.78;;;19.71;41.59
62710;BME280;48770;51.624;5.886;2023-02-19T14:31:19;102353.13;;;19.71;41.84
62710;BME280;48770;51.624;5.886;2023-02-19T14:33:48;102347.56;;;19.71;41.81
62710;BME280;48770;51.624;5.886;2023-02-19T14:36:34;102352.59;;;19.69;41.80
62710;BME280;48770;51.624;5.886;2023-02-19T14:39:28;102354.56;;;19.68;41.92
62710;BME280;48770;51.624;5.886;2023-02-19T14:41:59;102354.56;;;19.68;41.74
62710;BME280;48770;51.624;5.886;2023-02-19T14:44:28;102344.28;;;19.69;41.87
62710;BME280;48770;51.624;5.886;2023-02-19T14:47:18;102337.72;;;19.65;41.94
62710;BME280;48770;51.624;5.886;2023-02-19T14:53:05;102331.03;;;19.66;41.71
62710;BME280;48770;51.624;5.886;2023-02-19T14:55:27;102333.50;;;19.67;41.70
62710;BME280;48770;51.624;5.886;2023-02-19T14:57:55;102334.00;;;19.69;41.74
62710;BME280;48770;51.624;5.886;2023-02-19T15:00:25;102331.44;;;19.73;41.84
62710;BME280;48770;51.624;5.886;2023-02-19T15:02:53;102316.41;;;19.74;41.64
62710;BME280;48770;51.624;5.886;2023-02-19T15:07:55;102311.38;;;19.76;41.71